createdAt,value
2019-05-03T00:02:37.630Z,3.90
2019-05-03T00:05:15.840Z,3.90
2019-05-03T00:07:44.832Z,3.80
2019-05-03T00:10:14.682Z,3.80
2019-05-03T00:12:43.542Z,3.80
2019-05-03T00:15:26.151Z,3.80
2019-05-03T00:17:55.046Z,3.80
2019-05-03T00:20:23.837Z,3.80
2019-05-03T00:22:52.729Z,3.90
2019-05-03T00:25:22.102Z,4.00
2019-05-03T00:27:52.781Z,4.20
2019-05-03T00:30:22.545Z,4.30
2019-05-03T00:32:52.139Z,4.40
2019-05-03T00:35:32.964Z,4.40
2019-05-03T00:38:03.467Z,4.40
2019-05-03T00:40:32.441Z,4.40
2019-05-03T00:43:02.375Z,4.30
2019-05-03T00:45:31.642Z,4.30
2019-05-03T00:48:01.899Z,4.20
2019-05-03T00:50:32.134Z,4.20
2019-05-03T00:53:02.301Z,4.20
2019-05-03T00:55:32.790Z,4.20
2019-05-03T00:58:02.454Z,4.20
2019-05-03T01:00:32.321Z,4.20
2019-05-03T01:03:02.210Z,4.10
2019-05-03T01:05:33.137Z,4.10
2019-05-03T01:08:02.039Z,4.10
2019-05-03T01:10:32.934Z,4.10
2019-05-03T01:13:01.709Z,4.00
2019-05-03T01:15:32.268Z,4.00
2019-05-03T01:18:02.906Z,4.00
2019-05-03T01:20:32.111Z,4.00
2019-05-03T01:23:02.100Z,4.10
2019-05-03T01:25:35.223Z,4.10
2019-05-03T01:28:01.746Z,4.10
2019-05-03T01:30:32.075Z,4.10
2019-05-03T01:33:02.667Z,4.00
2019-05-03T01:35:32.315Z,4.00
2019-05-03T01:38:02.585Z,4.00
2019-05-03T01:40:32.618Z,4.00
2019-05-03T01:43:02.246Z,4.10
2019-05-03T01:45:31.827Z,4.30
2019-05-03T01:48:02.653Z,4.50
2019-05-03T01:50:35.529Z,4.70
2019-05-03T01:53:06.161Z,4.90
2019-05-03T01:55:53.375Z,5.00
2019-05-03T01:58:23.182Z,5.00
2019-05-03T02:00:54.386Z,5.00
2019-05-03T02:03:32.491Z,5.00
2019-05-03T02:06:02.423Z,5.00
2019-05-03T02:08:32.617Z,4.90
2019-05-03T02:11:02.206Z,4.80
2019-05-03T02:13:32.131Z,4.70
2019-05-03T02:16:02.309Z,4.60
2019-05-03T02:18:31.827Z,4.60
2019-05-03T02:21:01.691Z,4.60
2019-05-03T02:23:31.954Z,4.60
2019-05-03T02:26:02.912Z,4.70
2019-05-03T02:28:32.658Z,4.60
2019-05-03T02:31:03.560Z,4.60
2019-05-03T02:33:33.031Z,4.50
2019-05-03T02:36:03.604Z,4.50
2019-05-03T02:38:33.799Z,4.50
2019-05-03T02:41:03.299Z,4.50
2019-05-03T02:43:36.431Z,4.50
2019-05-03T02:46:25.365Z,4.40
2019-05-03T02:49:15.227Z,4.40
2019-05-03T02:51:45.935Z,4.40
2019-05-03T02:54:15.701Z,4.40
2019-05-03T02:56:46.050Z,4.30
2019-05-03T02:59:15.753Z,4.40
2019-05-03T03:01:46.579Z,4.50
2019-05-03T03:04:15.975Z,4.50
2019-05-03T03:06:47.529Z,4.50
2019-05-03T03:09:19.536Z,4.40
2019-05-03T03:11:50.922Z,4.40
2019-05-03T03:14:22.004Z,4.30
2019-05-03T03:16:52.262Z,4.40
2019-05-03T03:19:26.103Z,4.50
2019-05-03T03:21:57.931Z,5.10
2019-05-03T03:24:30.196Z,6.50
2019-05-03T03:26:59.421Z,8.10
2019-05-03T03:29:28.385Z,9.70
2019-05-03T03:32:10.907Z,11.10
2019-05-03T03:34:55.374Z,12.30
2019-05-03T03:37:19.436Z,12.90
2019-05-03T03:39:48.429Z,12.80
2019-05-03T03:42:21.286Z,13.10
2019-05-03T03:44:51.155Z,13.70
2019-05-03T03:47:21.878Z,14.30
2019-05-03T03:49:51.918Z,14.80
2019-05-03T03:52:22.171Z,14.50
2019-05-03T03:54:55.282Z,14.00
2019-05-03T03:57:26.210Z,13.30
2019-05-03T03:59:56.317Z,12.90
2019-05-03T04:02:26.385Z,12.80
2019-05-03T04:04:56.296Z,13.20
2019-05-03T04:07:26.230Z,14.00
2019-05-03T04:09:56.437Z,15.10
2019-05-03T04:12:26.527Z,15.90
2019-05-03T04:15:05.590Z,16.50
2019-05-03T04:17:56.658Z,16.60
2019-05-03T04:20:27.042Z,16.10
2019-05-03T04:22:56.244Z,15.30
2019-05-03T04:25:26.271Z,14.50
2019-05-03T04:27:56.096Z,14.00
2019-05-03T04:30:25.758Z,13.50
2019-05-03T04:32:56.478Z,12.90
2019-05-03T04:35:26.597Z,12.20
2019-05-03T04:37:56.050Z,11.70
2019-05-03T04:40:25.980Z,11.50
2019-05-03T04:42:55.858Z,11.40
2019-05-03T04:45:25.475Z,11.00
2019-05-03T04:47:56.083Z,10.50
2019-05-03T04:50:25.792Z,10.20
2019-05-03T04:52:56.565Z,10.10
2019-05-03T04:55:26.639Z,9.80
2019-05-03T04:57:56.243Z,9.80
2019-05-03T05:00:25.924Z,9.70
2019-05-03T05:02:55.420Z,9.60
2019-05-03T05:05:26.173Z,9.50
2019-05-03T05:07:55.744Z,9.50
2019-05-03T05:10:26.041Z,9.40
2019-05-03T05:12:55.364Z,9.00
2019-05-03T05:15:26.376Z,8.80
2019-05-03T05:18:06.155Z,8.60
2019-05-03T05:20:42.767Z,8.40
2019-05-03T05:23:11.660Z,8.30
2019-05-03T05:25:50.706Z,8.20
2019-05-03T05:28:36.134Z,8.20
2019-05-03T05:31:05.058Z,8.20
2019-05-03T05:33:35.373Z,8.20
2019-05-03T05:36:04.833Z,8.10
2019-05-03T05:38:34.638Z,7.80
2019-05-03T05:41:05.311Z,7.60
2019-05-03T05:43:35.688Z,7.40
2019-05-03T05:46:05.457Z,7.50
2019-05-03T05:48:38.723Z,7.90
2019-05-03T05:51:07.566Z,8.40
2019-05-03T05:53:36.433Z,8.90
2019-05-03T05:56:10.019Z,9.20
2019-05-03T05:58:40.431Z,9.30
2019-05-03T06:01:14.607Z,9.40
2019-05-03T06:03:44.859Z,9.50
2019-05-03T06:06:15.581Z,9.60
2019-05-03T06:08:46.008Z,9.80
2019-05-03T06:11:16.387Z,9.70
2019-05-03T06:13:54.507Z,9.60
2019-05-03T06:16:30.849Z,9.60
2019-05-03T06:19:10.374Z,9.60
2019-05-03T06:21:44.785Z,10.10
2019-05-03T06:24:32.015Z,11.60
2019-05-03T06:27:20.817Z,13.70
2019-05-03T06:29:51.099Z,16.10
2019-05-03T06:32:30.277Z,16.90
2019-05-03T06:34:59.275Z,15.80
2019-05-03T06:37:35.514Z,14.50
2019-05-03T06:40:06.892Z,14.20
2019-05-03T06:42:35.889Z,14.40
2019-05-03T06:45:10.358Z,14.50
2019-05-03T06:47:40.310Z,14.50
2019-05-03T06:50:08.753Z,14.00
2019-05-03T06:52:37.554Z,13.10
2019-05-03T06:55:10.553Z,12.60
2019-05-03T06:57:40.014Z,12.60
2019-05-03T07:00:19.832Z,12.70
2019-05-03T07:02:56.232Z,12.20
2019-05-03T07:05:26.642Z,11.20
2019-05-03T07:08:15.148Z,10.30
2019-05-03T07:10:45.547Z,9.70
2019-05-03T07:13:15.175Z,9.30
2019-05-03T07:15:45.403Z,9.10
2019-05-03T07:18:15.724Z,9.10
2019-05-03T07:20:46.365Z,9.20
2019-05-03T07:23:15.552Z,9.20
2019-05-03T07:25:44.939Z,9.10
2019-05-03T07:28:14.979Z,8.90
2019-05-03T07:30:45.398Z,8.70
2019-05-03T07:33:22.144Z,8.70
2019-05-03T07:35:51.039Z,8.80
2019-05-03T07:38:20.143Z,8.90
2019-05-03T07:40:49.145Z,9.20
2019-05-03T07:43:18.968Z,9.40
2019-05-03T07:45:47.949Z,9.70
2019-05-03T07:48:16.771Z,9.90
2019-05-03T07:50:45.594Z,10.20
2019-05-03T07:53:15.082Z,10.50
2019-05-03T07:55:51.779Z,10.70
2019-05-03T07:58:28.349Z,10.80
2019-05-03T08:01:06.228Z,10.80
2019-05-03T08:03:29.324Z,10.50
2019-05-03T08:05:58.119Z,10.00
2019-05-03T08:08:27.067Z,9.60
2019-05-03T08:10:56.035Z,9.30
2019-05-03T08:13:25.348Z,9.10
2019-05-03T08:15:55.746Z,9.10
2019-05-03T08:18:25.754Z,9.20
2019-05-03T08:20:55.658Z,9.40
2019-05-03T08:23:29.910Z,9.80
2019-05-03T08:25:55.712Z,10.10
2019-05-03T08:28:24.783Z,10.10
2019-05-03T08:31:11.490Z,10.10
2019-05-03T08:33:48.013Z,10.10
2019-05-03T08:36:17.013Z,10.10
2019-05-03T08:38:46.009Z,10.80
2019-05-03T08:41:16.617Z,11.50
2019-05-03T08:43:45.493Z,12.40
2019-05-03T08:46:14.840Z,13.20
2019-05-03T08:48:45.590Z,13.70
2019-05-03T08:51:14.863Z,14.00
2019-05-03T08:53:45.879Z,14.20
2019-05-03T08:56:15.646Z,14.00
2019-05-03T08:58:45.114Z,13.60
2019-05-03T09:01:14.866Z,13.40
2019-05-03T09:03:45.726Z,13.20
2019-05-03T09:06:15.484Z,13.10
2019-05-03T09:08:45.848Z,13.30
2019-05-03T09:11:16.455Z,13.30
2019-05-03T09:13:58.738Z,13.30
2019-05-03T09:16:27.624Z,13.30
2019-05-03T09:18:56.487Z,13.50
2019-05-03T09:21:25.649Z,13.40
2019-05-03T09:23:55.369Z,13.20
2019-05-03T09:26:28.592Z,13.20
2019-05-03T09:28:55.632Z,13.10
2019-05-03T09:31:25.001Z,13.00
2019-05-03T09:33:54.798Z,12.70
2019-05-03T09:36:25.389Z,12.70
2019-05-03T09:38:54.853Z,13.00
2019-05-03T09:41:25.590Z,12.80
2019-05-03T09:43:55.455Z,12.30
2019-05-03T09:46:26.573Z,11.60
2019-05-03T09:49:09.372Z,11.20
2019-05-03T09:51:25.749Z,10.90
2019-05-03T09:53:56.167Z,10.70
2019-05-03T09:56:53.640Z,10.60
2019-05-03T09:59:14.772Z,10.50
2019-05-03T10:01:45.626Z,10.50
2019-05-03T10:04:14.332Z,10.30
2019-05-03T10:06:45.124Z,10.10
2019-05-03T10:09:15.398Z,10.00
2019-05-03T10:11:45.943Z,10.10
2019-05-03T10:14:15.555Z,10.10
2019-05-03T10:16:49.144Z,10.20
2019-05-03T10:19:18.041Z,10.40
2019-05-03T10:21:48.675Z,10.70
2019-05-03T10:24:17.677Z,10.90
2019-05-03T10:26:46.557Z,11.20
2019-05-03T10:29:15.567Z,11.40
2019-05-03T10:31:55.266Z,11.40
2019-05-03T10:34:24.834Z,11.50
2019-05-03T10:36:54.848Z,11.50
2019-05-03T10:39:26.131Z,11.60
2019-05-03T10:41:55.005Z,11.90
2019-05-03T10:44:24.622Z,12.10
2019-05-03T10:46:55.780Z,11.50
2019-05-03T10:49:24.570Z,11.30
2019-05-03T10:51:55.230Z,11.20
2019-05-03T10:54:24.047Z,11.40
2019-05-03T10:57:01.133Z,11.60
2019-05-03T10:59:30.143Z,11.60
2019-05-03T11:02:00.600Z,11.60
2019-05-03T11:04:29.985Z,11.70
2019-05-03T11:06:58.971Z,11.80
2019-05-03T11:09:27.776Z,11.70
2019-05-03T11:11:56.656Z,11.50
2019-05-03T11:14:25.621Z,11.50
2019-05-03T11:16:55.219Z,11.50
2019-05-03T11:19:25.450Z,11.50
2019-05-03T11:21:54.825Z,11.50
2019-05-03T11:24:27.196Z,11.70
2019-05-03T11:26:56.046Z,11.60
2019-05-03T11:29:24.968Z,11.50
2019-05-03T11:32:01.354Z,11.60
2019-05-03T11:34:35.448Z,11.80
2019-05-03T11:37:12.222Z,12.10
2019-05-03T11:39:41.213Z,12.40
2019-05-03T11:42:10.080Z,12.30
2019-05-03T11:44:38.897Z,12.40
2019-05-03T11:47:08.985Z,12.60
2019-05-03T11:49:38.120Z,12.70
2019-05-03T11:52:07.222Z,12.70
2019-05-03T11:54:36.142Z,12.40
2019-05-03T11:57:12.577Z,12.00
2019-05-03T11:59:41.584Z,11.90
2019-05-03T12:02:15.371Z,11.80
2019-05-03T12:04:45.856Z,11.60
2019-05-03T12:07:18.389Z,11.40
2019-05-03T12:09:46.894Z,11.30
2019-05-03T12:12:17.299Z,11.10
2019-05-03T12:14:46.201Z,10.90
2019-05-03T12:17:24.262Z,10.70
2019-05-03T12:19:48.386Z,10.50
2019-05-03T12:22:17.951Z,10.20
2019-05-03T12:24:47.618Z,9.90
2019-05-03T12:27:17.015Z,9.70
2019-05-03T12:29:45.841Z,9.60
2019-05-03T12:32:14.699Z,9.80
2019-05-03T12:34:43.497Z,10.10
2019-05-03T12:37:12.409Z,10.30
2019-05-03T12:39:41.191Z,10.40
2019-05-03T12:42:10.478Z,10.30
2019-05-03T12:44:39.493Z,10.10
2019-05-03T12:47:08.300Z,10.10
2019-05-03T12:49:37.094Z,10.30
2019-05-03T12:52:06.197Z,10.60
2019-05-03T12:54:35.619Z,10.70
2019-05-03T12:57:05.211Z,10.70
2019-05-03T12:59:36.032Z,10.40
2019-05-03T13:02:07.071Z,10.30
2019-05-03T13:04:37.498Z,10.40
2019-05-03T13:07:07.947Z,10.50
2019-05-03T13:09:36.738Z,10.40
2019-05-03T13:12:06.660Z,10.30
2019-05-03T13:14:35.544Z,10.20
2019-05-03T13:17:04.809Z,10.10
2019-05-03T13:19:34.909Z,10.00
2019-05-03T13:22:03.965Z,10.00
2019-05-03T13:24:34.669Z,10.10
2019-05-03T13:27:05.416Z,10.20
2019-05-03T13:29:34.854Z,10.40
2019-05-03T13:32:05.613Z,10.40
2019-05-03T13:34:35.405Z,10.50
2019-05-03T13:37:04.581Z,10.50
2019-05-03T13:39:35.715Z,10.40
2019-05-03T13:42:05.659Z,10.40
2019-05-03T13:44:35.532Z,10.30
2019-05-03T13:47:04.633Z,10.20
2019-05-03T13:49:35.239Z,10.10
2019-05-03T13:52:05.270Z,10.10
2019-05-03T13:54:35.065Z,9.90
2019-05-03T13:57:04.951Z,9.70
2019-05-03T13:59:33.936Z,9.40
2019-05-03T14:02:14.439Z,9.30
2019-05-03T14:04:42.788Z,9.20
2019-05-03T14:07:04.644Z,9.10
2019-05-03T14:09:34.771Z,8.90
2019-05-03T14:12:05.609Z,8.70
2019-05-03T14:14:55.341Z,8.40
2019-05-03T14:17:25.781Z,8.20
2019-05-03T14:19:56.188Z,8.30
2019-05-03T14:22:29.315Z,8.50
2019-05-03T14:24:58.067Z,8.70
2019-05-03T14:27:26.889Z,8.80
2019-05-03T14:29:55.699Z,8.90
2019-05-03T14:32:26.746Z,9.00
2019-05-03T14:34:55.010Z,9.00
2019-05-03T14:37:23.869Z,9.00
2019-05-03T14:39:54.488Z,8.90
2019-05-03T14:42:24.740Z,8.80
2019-05-03T14:44:55.239Z,8.90
2019-05-03T14:47:25.239Z,8.90
2019-05-03T14:49:54.588Z,9.10
2019-05-03T14:52:25.234Z,9.20
2019-05-03T14:54:55.676Z,9.30
2019-05-03T14:57:32.250Z,9.40
2019-05-03T15:00:12.429Z,9.40
2019-05-03T15:02:50.612Z,9.40
2019-05-03T15:05:15.778Z,9.40
2019-05-03T15:07:45.873Z,9.20
2019-05-03T15:10:15.135Z,9.00
2019-05-03T15:12:45.204Z,8.90
2019-05-03T15:15:14.797Z,8.80
2019-05-03T15:17:45.589Z,8.90
2019-05-03T15:20:14.802Z,8.90
2019-05-03T15:22:45.435Z,8.90
2019-05-03T15:25:14.424Z,8.80
2019-05-03T15:27:44.784Z,8.60
2019-05-03T15:30:15.591Z,8.40
2019-05-03T15:32:57.137Z,8.20
2019-05-03T15:35:15.343Z,8.10
2019-05-03T15:37:45.308Z,8.00
2019-05-03T15:40:15.580Z,8.10
2019-05-03T15:42:46.246Z,8.20
2019-05-03T15:45:22.570Z,8.20
2019-05-03T15:48:09.276Z,8.20
2019-05-03T15:50:38.019Z,8.20
2019-05-03T15:53:07.001Z,8.20
2019-05-03T15:55:36.844Z,8.20
2019-05-03T15:58:05.715Z,8.30
2019-05-03T16:00:34.818Z,8.30
2019-05-03T16:03:08.872Z,8.40
2019-05-03T16:05:35.482Z,8.50
2019-05-03T16:08:04.698Z,8.50
2019-05-03T16:10:33.512Z,8.70
2019-05-03T16:13:02.276Z,9.10
2019-05-03T16:15:31.227Z,9.40
2019-05-03T16:17:59.992Z,9.50
2019-05-03T16:20:28.778Z,9.60
2019-05-03T16:22:57.613Z,9.50
2019-05-03T16:25:26.791Z,9.10
2019-05-03T16:27:57.221Z,8.90
2019-05-03T16:30:27.673Z,8.60
2019-05-03T16:32:56.534Z,8.40
2019-05-03T16:35:26.425Z,8.20
2019-05-03T16:37:55.396Z,8.10
2019-05-03T16:40:25.256Z,8.00
2019-05-03T16:42:54.158Z,8.00
2019-05-03T16:45:22.974Z,7.90
2019-05-03T16:47:51.730Z,7.90
2019-05-03T16:50:20.542Z,7.80
2019-05-03T16:52:49.352Z,7.80
2019-05-03T16:55:18.187Z,7.70
2019-05-03T16:57:47.008Z,7.60
2019-05-03T17:00:17.920Z,7.60
2019-05-03T17:02:46.904Z,7.60
2019-05-03T17:05:25.177Z,7.60
2019-05-03T17:08:12.075Z,7.70
2019-05-03T17:10:42.543Z,7.60
2019-05-03T17:13:11.278Z,7.60
2019-05-03T17:15:40.028Z,7.60
2019-05-03T17:18:08.833Z,7.50
2019-05-03T17:20:37.613Z,7.50
2019-05-03T17:23:07.013Z,7.50
2019-05-03T17:25:36.002Z,7.50
2019-05-03T17:28:05.067Z,7.60
2019-05-03T17:30:37.190Z,7.60
2019-05-03T17:33:04.615Z,7.60
2019-05-03T17:35:34.631Z,7.50
2019-05-03T17:38:05.305Z,7.40
2019-05-03T17:40:52.388Z,7.30
2019-05-03T17:43:22.826Z,7.30
2019-05-03T17:45:54.895Z,7.20
2019-05-03T17:48:23.777Z,7.20
2019-05-03T17:50:52.708Z,7.10
2019-05-03T17:53:38.116Z,7.10
2019-05-03T17:56:17.211Z,7.00
2019-05-03T17:58:56.897Z,7.00
2019-05-03T18:01:44.553Z,6.90
2019-05-03T18:04:21.213Z,6.70
2019-05-03T18:07:06.668Z,6.60
2019-05-03T18:09:36.722Z,6.50
2019-05-03T18:12:06.309Z,6.30
2019-05-03T18:14:35.118Z,6.20
2019-05-03T18:17:05.711Z,6.10
2019-05-03T18:19:34.491Z,5.90
2019-05-03T18:22:05.210Z,5.80
2019-05-03T18:24:35.245Z,5.70
2019-05-03T18:27:04.788Z,5.60
2019-05-03T18:29:34.640Z,5.50
2019-05-03T18:32:05.489Z,5.30
2019-05-03T18:34:34.456Z,5.30
2019-05-03T18:37:04.790Z,5.20
2019-05-03T18:39:34.708Z,5.10
2019-05-03T18:42:05.198Z,5.00
2019-05-03T18:44:38.435Z,4.90
2019-05-03T18:47:08.882Z,4.80
2019-05-03T18:49:37.660Z,4.80
2019-05-03T18:52:06.643Z,4.70
2019-05-03T18:54:35.405Z,4.70
2019-05-03T18:57:05.077Z,4.60
2019-05-03T18:59:34.000Z,4.60
2019-05-03T19:02:02.859Z,4.50
2019-05-03T19:04:35.730Z,4.50
2019-05-03T19:07:05.302Z,4.50
2019-05-03T19:09:35.820Z,4.50
2019-05-03T19:12:21.226Z,4.50
2019-05-03T19:14:50.234Z,4.40
2019-05-03T19:17:26.789Z,4.50
2019-05-03T19:19:57.597Z,4.40
2019-05-03T19:22:26.699Z,4.50
2019-05-03T19:24:55.604Z,4.50
2019-05-03T19:27:25.151Z,4.50
2019-05-03T19:29:55.390Z,4.50
2019-05-03T19:32:25.524Z,4.40
2019-05-03T19:34:55.076Z,4.40
2019-05-03T19:37:25.116Z,4.40
2019-05-03T19:39:55.221Z,4.40
2019-05-03T19:42:27.085Z,4.30
2019-05-03T19:44:55.413Z,4.30
2019-05-03T19:47:25.165Z,4.30
2019-05-03T19:49:54.703Z,4.30
2019-05-03T19:52:28.257Z,4.20
2019-05-03T19:54:57.043Z,4.20
2019-05-03T19:57:30.479Z,4.20
2019-05-03T19:59:59.381Z,4.20
2019-05-03T20:02:34.997Z,4.20
2019-05-03T20:05:21.653Z,4.10
2019-05-03T20:07:57.590Z,4.10
2019-05-03T20:10:26.442Z,4.10
2019-05-03T20:12:55.200Z,4.10
2019-05-03T20:15:23.985Z,4.10
2019-05-03T20:17:59.232Z,4.10
2019-05-03T20:20:23.310Z,4.00
2019-05-03T20:22:52.108Z,4.10
2019-05-03T20:25:20.939Z,4.10
2019-05-03T20:27:49.811Z,4.00
2019-05-03T20:30:18.776Z,4.00
2019-05-03T20:32:47.647Z,4.00
2019-05-03T20:35:19.044Z,3.90
2019-05-03T20:37:46.978Z,3.90
2019-05-03T20:43:06.998Z,3.80
2019-05-03T20:45:37.467Z,3.80
2019-05-03T20:48:07.879Z,3.80
2019-05-03T20:50:36.783Z,3.70
2019-05-03T20:53:05.723Z,3.70
2019-05-03T20:55:34.823Z,3.60
2019-05-03T20:58:05.898Z,3.60
2019-05-03T21:00:34.618Z,3.60
2019-05-03T21:03:04.903Z,3.50
2019-05-03T21:05:35.425Z,3.50
2019-05-03T21:08:05.561Z,3.50
2019-05-03T21:10:34.693Z,3.50
2019-05-03T21:13:05.309Z,3.50
2019-05-03T21:15:50.794Z,3.40
2019-05-03T21:18:37.601Z,3.40
2019-05-03T21:21:24.898Z,3.40
2019-05-03T21:24:11.511Z,3.40
2019-05-03T21:26:40.412Z,3.30
2019-05-03T21:29:09.412Z,3.30
2019-05-03T21:31:38.404Z,3.30
2019-05-03T21:34:07.292Z,3.30
2019-05-03T21:36:36.295Z,3.30
2019-05-03T21:39:07.077Z,3.30
2019-05-03T21:41:37.977Z,3.30
2019-05-03T21:44:06.354Z,3.30
2019-05-03T21:46:36.993Z,3.20
2019-05-03T21:49:10.388Z,3.20
2019-05-03T21:51:39.283Z,3.20
2019-05-03T21:54:08.179Z,3.20
2019-05-03T21:56:37.178Z,3.10
2019-05-03T21:59:06.070Z,3.10
2019-05-03T22:01:37.463Z,3.10
2019-05-03T22:04:06.623Z,3.00
2019-05-03T22:06:35.623Z,3.00
2019-05-03T22:09:05.865Z,3.00
2019-05-03T22:11:34.633Z,3.00
2019-05-03T22:14:05.164Z,2.90
2019-05-03T22:16:35.599Z,2.90
2019-05-03T22:19:04.897Z,2.90
2019-05-03T22:21:36.906Z,2.80
2019-05-03T22:24:14.796Z,2.90
2019-05-03T22:26:54.404Z,2.80
2019-05-03T22:29:25.250Z,2.80
2019-05-03T22:31:54.881Z,2.70
2019-05-03T22:34:25.688Z,2.70
2019-05-03T22:36:54.927Z,2.70
2019-05-03T22:39:24.975Z,2.70
2019-05-03T22:41:54.226Z,2.70
2019-05-03T22:44:25.095Z,2.70
2019-05-03T22:46:55.139Z,2.70
2019-05-03T22:49:26.010Z,2.60
2019-05-03T22:51:54.716Z,2.60
2019-05-03T22:54:24.530Z,2.60
2019-05-03T22:56:55.529Z,2.60
2019-05-03T22:59:25.175Z,2.60
2019-05-03T23:01:54.769Z,2.60
2019-05-03T23:04:25.384Z,2.50
2019-05-03T23:06:55.483Z,2.50
2019-05-03T23:09:25.028Z,2.50
2019-05-03T23:11:55.245Z,2.50
2019-05-03T23:14:25.428Z,2.40
2019-05-03T23:16:54.820Z,2.40
2019-05-03T23:19:23.816Z,2.40
2019-05-03T23:21:54.520Z,2.30
2019-05-03T23:24:24.700Z,2.30
2019-05-03T23:26:53.773Z,2.30
2019-05-03T23:29:22.683Z,2.30
2019-05-03T23:31:51.560Z,2.20
2019-05-03T23:34:20.555Z,2.20
2019-05-03T23:37:08.796Z,2.20
2019-05-03T23:39:37.690Z,2.20
2019-05-03T23:42:06.488Z,2.20
2019-05-03T23:44:35.417Z,2.20
2019-05-03T23:47:20.068Z,2.20
2019-05-03T23:49:48.904Z,2.20
2019-05-03T23:52:28.235Z,2.20
2019-05-03T23:54:58.616Z,2.20
2019-05-03T23:57:27.607Z,2.30
2019-05-03T23:59:56.959Z,2.30
